createdAt,value
2018-06-19T00:03:46.457Z,7.32
2018-06-19T00:09:41.463Z,6.91
2018-06-19T00:15:36.489Z,7.84
2018-06-19T00:21:31.514Z,7.08
2018-06-19T00:27:26.455Z,8.15
2018-06-19T00:33:21.473Z,7.72
2018-06-19T00:39:16.483Z,7.62
2018-06-19T00:45:11.535Z,7.73
2018-06-19T00:51:06.488Z,7.31
2018-06-19T00:57:01.505Z,7.56
2018-06-19T01:02:56.520Z,7.67
2018-06-19T01:08:51.475Z,7
2018-06-19T01:14:46.483Z,7.93
2018-06-19T01:20:41.491Z,7.32
2018-06-19T01:26:36.505Z,7.63
2018-06-19T01:32:31.534Z,8.05
2018-06-19T01:38:26.540Z,8.43
2018-06-19T01:44:21.563Z,8.63
2018-06-19T01:50:16.539Z,8.34
2018-06-19T01:56:11.535Z,8.24
2018-06-19T02:02:06.541Z,8.46
2018-06-19T02:08:01.535Z,8.73
2018-06-19T02:13:56.584Z,9.01
2018-06-19T02:19:51.557Z,8.23
2018-06-19T02:25:46.536Z,8.77
2018-06-19T02:31:41.566Z,9
2018-06-19T02:37:36.603Z,8.94
2018-06-19T02:43:31.569Z,8.63
2018-06-19T02:49:26.605Z,8.62
2018-06-19T02:55:21.586Z,8.26
2018-06-19T03:01:16.642Z,9.12
2018-06-19T03:07:11.572Z,8.3
2018-06-19T03:13:06.571Z,8.77
2018-06-19T03:19:01.590Z,8.04
2018-06-19T03:24:56.570Z,7.75
2018-06-19T03:30:51.589Z,6.24
2018-06-19T03:36:46.616Z,5.78
2018-06-19T03:42:41.620Z,6.77
2018-06-19T03:48:36.574Z,9.27
2018-06-19T03:54:31.631Z,9.6
2018-06-19T04:00:26.620Z,9.14
2018-06-19T04:06:21.637Z,9.49
2018-06-19T04:12:16.598Z,9.71
2018-06-19T04:18:11.643Z,9.83
2018-06-19T04:24:06.643Z,9.13
2018-06-19T04:30:01.709Z,8.42
2018-06-19T04:35:56.661Z,8.11
2018-06-19T04:41:51.623Z,7.79
2018-06-19T04:47:46.650Z,7.19
2018-06-19T04:53:41.668Z,6.91
2018-06-19T04:59:36.696Z,5.4
2018-06-19T05:05:31.657Z,5.79
2018-06-19T05:11:26.667Z,5.69
2018-06-19T05:17:21.768Z,5.28
2018-06-19T05:23:16.670Z,5.72
2018-06-19T05:29:11.675Z,5.58
2018-06-19T05:35:06.669Z,4.8
2018-06-19T05:41:01.696Z,5.13
2018-06-19T05:46:56.666Z,12.73
2018-06-19T05:52:51.780Z,25.49
2018-06-19T05:58:46.787Z,20.69
2018-06-19T06:04:41.704Z,14.31
2018-06-19T06:10:36.752Z,10.57
2018-06-19T06:16:31.783Z,9.28
2018-06-19T06:22:26.678Z,8.15
2018-06-19T06:28:21.712Z,7.79
2018-06-19T06:34:16.746Z,8.15
2018-06-19T06:40:11.800Z,9.49
2018-06-19T06:46:06.763Z,9.44
2018-06-19T06:52:01.716Z,8.84
2018-06-19T06:57:56.747Z,6.98
2018-06-19T07:03:51.758Z,6.22
2018-06-19T07:09:46.741Z,5.76
2018-06-19T07:15:41.793Z,3.8
2018-06-19T07:21:36.760Z,3.39
2018-06-19T07:27:31.784Z,3.29
2018-06-19T07:33:26.805Z,3.24
2018-06-19T07:39:21.772Z,3.34
2018-06-19T07:45:16.753Z,3.05
2018-06-19T07:51:11.782Z,2.74
2018-06-19T07:57:06.774Z,3.38
2018-06-19T08:03:01.763Z,3.14
2018-06-19T08:08:56.764Z,2.99
2018-06-19T08:14:51.812Z,2.96
2018-06-19T08:20:46.847Z,2.77
2018-06-19T08:26:41.778Z,2.66
2018-06-19T08:32:36.816Z,2.63
2018-06-19T08:38:31.837Z,2.5
2018-06-19T08:44:26.826Z,2.82
2018-06-19T08:50:21.842Z,2.6
2018-06-19T08:56:16.858Z,2.6
2018-06-19T09:02:11.852Z,2.28
2018-06-19T09:08:06.823Z,2.83
2018-06-19T09:14:01.845Z,2.62
2018-06-19T09:19:56.862Z,2.59
2018-06-19T09:25:51.863Z,2.47
2018-06-19T09:31:46.848Z,2.43
2018-06-19T09:37:41.914Z,2.43
2018-06-19T09:43:36.868Z,2.28
2018-06-19T09:49:31.867Z,2.19
2018-06-19T09:55:26.841Z,2.05
2018-06-19T10:01:21.900Z,2.13
2018-06-19T10:07:16.918Z,2.39
2018-06-19T10:13:11.868Z,2.28
2018-06-19T10:19:06.910Z,1.98
2018-06-19T10:25:02.021Z,2.08
2018-06-19T10:30:56.878Z,2.19
2018-06-19T10:36:51.910Z,1.82
2018-06-19T10:42:46.929Z,1.89
2018-06-19T10:48:41.994Z,1.82
2018-06-19T10:54:36.947Z,1.66
2018-06-19T11:00:31.936Z,1.79
2018-06-19T11:06:26.952Z,1.79
2018-06-19T11:12:21.924Z,1.43
2018-06-19T11:18:16.964Z,1.81
2018-06-19T11:24:11.964Z,1.65
2018-06-19T11:30:06.956Z,1.67
2018-06-19T11:36:01.967Z,1.7
2018-06-19T11:41:56.947Z,1.93
2018-06-19T11:47:52.006Z,1.83
2018-06-19T11:53:46.964Z,1.56
2018-06-19T11:59:41.954Z,1.9
2018-06-19T12:05:36.983Z,2.59
2018-06-19T12:11:31.983Z,1.83
2018-06-19T12:17:27.063Z,1.71
2018-06-19T12:23:22.027Z,1.83
2018-06-19T12:29:16.989Z,1.9
2018-06-19T12:35:12.002Z,1.8
2018-06-19T12:41:07.031Z,1.87
2018-06-19T12:47:02.030Z,1.69
2018-06-19T12:52:57.026Z,1.71
2018-06-19T12:58:52.051Z,1.92
2018-06-19T13:04:47.035Z,1.94
2018-06-19T13:10:42.015Z,2.09
2018-06-19T13:16:37.039Z,2.15
2018-06-19T13:22:32.122Z,1.67
2018-06-19T13:28:27.075Z,2.3
2018-06-19T13:34:22.042Z,2.17
2018-06-19T13:40:17.074Z,2.23
2018-06-19T13:46:12.075Z,2.49
2018-06-19T13:52:07.113Z,2.13
2018-06-19T13:58:02.125Z,2.45
2018-06-19T14:03:57.076Z,1.89
2018-06-19T14:09:52.050Z,2.03
2018-06-19T14:15:47.140Z,2.38
2018-06-19T14:21:42.081Z,2.23
2018-06-19T14:27:37.081Z,2.52
2018-06-19T14:33:32.070Z,2.49
2018-06-19T14:39:27.106Z,2.59
2018-06-19T14:45:22.146Z,2.3
2018-06-19T14:51:17.107Z,2.87
2018-06-19T14:57:12.096Z,2.49
2018-06-19T15:03:07.135Z,2.4
2018-06-19T15:09:02.190Z,2.61
2018-06-19T15:14:57.173Z,2.86
2018-06-19T15:20:52.139Z,2.63
2018-06-19T15:26:47.136Z,2.95
2018-06-19T15:32:42.115Z,3
2018-06-19T15:38:37.158Z,3.33
2018-06-19T15:44:32.161Z,3.11
2018-06-19T15:50:27.254Z,3.5
2018-06-19T15:56:22.138Z,3.07
2018-06-19T16:02:17.160Z,3.11
2018-06-19T16:08:12.194Z,3.31
2018-06-19T16:14:07.179Z,3.13
2018-06-19T16:20:02.211Z,2.82
2018-06-19T16:25:57.228Z,3.09
2018-06-19T16:31:52.239Z,2.94
2018-06-19T16:37:47.189Z,2.66
2018-06-19T16:43:42.201Z,2.62
2018-06-19T16:49:37.191Z,3.02
2018-06-19T16:55:32.258Z,3.4
2018-06-19T17:01:27.303Z,2.53
2018-06-19T17:07:22.232Z,2.61
2018-06-19T17:13:17.227Z,2.81
2018-06-19T17:19:12.213Z,4.14
2018-06-19T17:25:07.216Z,6.47
2018-06-19T17:31:02.281Z,3.33
2018-06-19T17:36:57.229Z,4.81
2018-06-19T17:42:52.261Z,5.31
2018-06-19T17:48:47.253Z,3.26
2018-06-19T17:54:42.260Z,3.01
2018-06-19T18:00:37.272Z,3.05
2018-06-19T18:06:32.247Z,2.35
2018-06-19T18:12:27.260Z,2.35
2018-06-19T18:18:22.257Z,2.74
2018-06-19T18:24:17.307Z,2.8
2018-06-19T18:30:12.260Z,2.66
2018-06-19T18:36:07.277Z,2.4
2018-06-19T18:42:02.311Z,2.47
2018-06-19T18:47:57.321Z,2.46
2018-06-19T18:53:52.301Z,2.77
2018-06-19T18:59:47.314Z,2.69
2018-06-19T19:05:42.304Z,2.29
2018-06-19T19:11:37.391Z,2.9
2018-06-19T19:17:32.287Z,2.69
2018-06-19T19:23:27.327Z,2.61
2018-06-19T19:29:22.336Z,2.47
2018-06-19T19:35:17.423Z,2.53
2018-06-19T19:41:12.324Z,2.52
2018-06-19T19:47:07.380Z,2.46
2018-06-19T19:53:02.346Z,2.75
2018-06-19T19:58:57.344Z,2.39
2018-06-19T20:04:52.318Z,2.54
2018-06-19T20:10:47.366Z,2.22
2018-06-19T20:16:42.389Z,2.45
2018-06-19T20:22:37.340Z,2.37
2018-06-19T20:28:32.373Z,2.27
2018-06-19T20:34:27.389Z,1.72
2018-06-19T20:40:22.406Z,1.86
2018-06-19T20:46:17.430Z,1.71
2018-06-19T20:52:12.443Z,1.55
2018-06-19T20:58:07.455Z,1.73
2018-06-19T21:04:02.399Z,1.54
2018-06-19T21:09:57.465Z,1.43
2018-06-19T21:15:52.420Z,1.62
2018-06-19T21:21:47.430Z,1.42
2018-06-19T21:27:42.414Z,1.51
2018-06-19T21:33:37.440Z,1.45
2018-06-19T21:39:32.407Z,1.5
2018-06-19T21:45:27.399Z,1.29
